Airfield :
LOGIN :

Register | Disclaimer

   EN    FR    IT 

 










Legend :    VFR   Marginal VFR   IFR   Intensive IFR   Very Intensive IFR
Visi :
Ceiling :
>= 8 km
>= 3000ft
5 to 8 km
1000 to 3000 ft
1500m to 5 km
500 to 1000 ft
800 to 1500m
200 to 500 ft
< 800m
< 200 ft
Symbols :   Thunderstorms  Fog  Heavy snow  Heavy precipitations  Wind > 20 kt
SIGMETs :     Misc.  Thunderstorms  Icing  Turbulence  Mountain Waves  Volcanic Ashes






- Airport Elevation : 751 ft
- IATA code : ENC


LFSN - Nancy Essey

CURRENT METAR :
  • 301400Z AUTO 01007KT 9999 BKN016 BKN041 OVC150 08/06 Q1021

EXPIRED METARs :
  • 301330Z AUTO 01008KT 9999 BKN015 OVC020 08/06 Q1021
  • 301300Z AUTO 01007KT 9999 OVC016 08/06 Q1021
  • 301230Z AUTO 01007KT 9999 BKN012 OVC032 08/06 Q1021
  • 301200Z AUTO 01006KT 330V040 9999 OVC011 07/06 Q1021
  • 301130Z AUTO 02006KT 9000 BKN010 OVC035 07/06 Q1021

Expired Forecast.



MET'MAP, your aeronautical weather chart ! - Copyright ORBIFLY December 2007 - Disclaimer

ORBIFLY MET'MAP TEAM :

Programming & Development : Alexandra Zaïnal
Original concept : Baudouin d'Aumeries
Technical & hardware support : Manuel Goepfert
Assistance : Marc-Olivier Méhu




SOURCES & CREDITS :

   NOAA